Time;durP1;ratioP1;P1;durP2;ratioP2;P2;SDS_P1;SDS_P2;PMS_P1;PMS_P2;Temp;Humidity;BMP_temperature;BMP_pressure;BME280_temperature;BME280_humidity;BME280_pressure;Samples;Min_cycle;Max_cycle;Signal;HPM_P1;HPM_P2
2021/12/26 00:00:24;;;;;;;16.80;8.88;;;;;;;4.49;78.32;94275.25;5011480;28;20263;-71
2021/12/26 00:02:51;;;;;;;14.20;7.70;;;;;;;4.45;78.61;94274.25;5011468;28;20304;-70
2021/12/26 00:05:19;;;;;;;16.38;7.60;;;;;;;4.25;78.12;94273.53;5010699;28;20205;-70
2021/12/26 00:07:48;;;;;;;13.95;7.53;;;;;;;4.21;78.27;94261.81;5011678;28;20212;-71
2021/12/26 00:10:18;;;;;;;13.27;7.28;;;;;;;4.16;79.09;94274.50;5011492;28;20566;-70
2021/12/26 00:12:45;;;;;;;23.83;10.63;;;;;;;3.95;79.08;94268.72;5011126;28;20212;-70
2021/12/26 00:15:12;;;;;;;20.58;9.88;;;;;;;3.56;80.84;94271.75;5010578;28;20279;-71
2021/12/26 00:17:39;;;;;;;16.88;8.77;;;;;;;3.66;80.92;94271.63;5010724;28;20209;-72
2021/12/26 00:20:08;;;;;;;12.60;7.93;;;;;;;3.76;80.87;94281.38;5011280;28;20599;-71
2021/12/26 00:22:35;;;;;;;21.77;7.38;;;;;;;3.74;80.30;94276.31;5011428;28;20236;-70
2021/12/26 00:25:05;;;;;;;17.08;8.13;;;;;;;3.77;80.26;94266.88;5011250;28;20228;-70
2021/12/26 00:27:32;;;;;;;19.70;9.85;;;;;;;3.77;80.28;94258.84;5010814;28;20225;-72
2021/12/26 00:29:59;;;;;;;18.30;8.00;;;;;;;3.92;79.78;94259.38;5011104;28;20205;-71
2021/12/26 00:32:27;;;;;;;15.60;7.70;;;;;;;3.93;79.98;94260.97;5011094;28;20197;-71
2021/12/26 00:34:54;;;;;;;18.75;8.77;;;;;;;3.87;80.12;94272.06;5010854;28;20616;-72
2021/12/26 00:37:20;;;;;;;19.35;9.55;;;;;;;3.51;80.61;94280.69;5011045;28;20209;-71
2021/12/26 00:39:47;;;;;;;14.05;8.00;;;;;;;3.44;80.87;94269.53;5011069;28;20217;-71
2021/12/26 00:42:16;;;;;;;20.17;7.65;;;;;;;3.51;81.16;94264.63;5010574;28;20237;-71
2021/12/26 00:44:43;;;;;;;12.77;7.38;;;;;;;3.57;80.67;94255.41;5010517;28;20270;-70
2021/12/26 00:47:12;;;;;;;11.85;7.07;;;;;;;3.65;80.92;94269.22;5011052;28;20208;-70
2021/12/26 00:49:40;;;;;;;15.55;7.78;;;;;;;3.62;80.82;94265.25;5010712;28;20746;-72
2021/12/26 00:52:08;;;;;;;16.33;8.10;;;;;;;3.64;80.49;94273.00;5010901;28;20223;-70
2021/12/26 00:54:36;;;;;;;23.60;5.15;;;;;;;2.97;81.42;94291.91;5010603;28;20279;-70
2021/12/26 00:57:04;;;;;;;21.48;8.38;;;;;;;2.92;81.98;94283.16;5010932;28;20552;-72
2021/12/26 00:59:32;;;;;;;15.60;7.88;;;;;;;2.95;82.45;94272.69;5010437;28;20212;-72
2021/12/26 01:02:00;;;;;;;14.68;7.38;;;;;;;3.05;82.80;94287.78;5009883;28;20240;-71
2021/12/26 01:04:27;;;;;;;15.20;7.60;;;;;;;2.85;82.23;94268.28;5010541;28;20201;-70
2021/12/26 01:06:54;;;;;;;21.27;9.07;;;;;;;3.03;82.77;94290.75;5010567;28;20212;-71
2021/12/26 01:09:25;;;;;;;16.10;8.15;;;;;;;3.04;82.65;94286.19;5010612;28;20205;-71
2021/12/26 01:11:55;;;;;;;20.35;10.32;;;;;;;2.92;83.23;94288.50;5009846;28;20659;-71
2021/12/26 01:14:27;;;;;;;20.05;10.00;;;;;;;2.92;83.09;94272.44;5010213;28;20193;-72
2021/12/26 01:17:05;;;;;;;22.40;9.25;;;;;;;2.87;83.87;94280.56;5010493;28;20280;-71
2021/12/26 01:19:41;;;;;;;18.85;8.57;;;;;;;2.79;83.13;94269.41;5010373;28;20193;-71
2021/12/26 01:22:08;;;;;;;22.45;7.97;;;;;;;2.63;84.03;94254.63;5009909;28;20217;-71
2021/12/26 01:24:35;;;;;;;17.60;8.52;;;;;;;2.69;83.97;94274.09;5009896;28;20224;-71
2021/12/26 01:27:03;;;;;;;18.20;9.73;;;;;;;2.76;83.91;94261.97;5009933;28;20667;-72
2021/12/26 01:29:30;;;;;;;20.30;9.55;;;;;;;2.72;83.99;94252.94;5009849;28;20208;-72
2021/12/26 01:31:58;;;;;;;24.48;9.07;;;;;;;2.83;83.69;94275.78;5009924;28;20220;-72
2021/12/26 01:34:25;;;;;;;17.27;8.00;;;;;;;2.62;83.39;94261.06;5009738;28;20209;-72
2021/12/26 01:36:52;;;;;;;20.73;9.13;;;;;;;2.61;84.01;94270.16;5010014;28;20209;-71
2021/12/26 01:39:19;;;;;;;21.48;8.73;;;;;;;2.60;84.74;94260.56;5009529;28;20228;-71
2021/12/26 01:41:47;;;;;;;13.98;6.28;;;;;;;2.71;84.06;94246.00;5008946;28;20237;-71
2021/12/26 01:44:15;;;;;;;21.23;9.32;;;;;;;2.67;84.14;94244.97;5009371;28;20201;-71
2021/12/26 01:46:43;;;;;;;23.35;10.32;;;;;;;2.65;84.41;94252.47;5010036;28;20208;-72
2021/12/26 01:49:14;;;;;;;16.92;8.93;;;;;;;2.39;85.09;94233.28;5009927;28;20201;-71
2021/12/26 01:51:43;;;;;;;16.92;8.73;;;;;;;2.49;85.21;94256.41;5010045;28;20189;-71
2021/12/26 01:54:12;;;;;;;17.65;8.38;;;;;;;2.37;85.07;94245.34;5009713;28;20557;-72
2021/12/26 01:56:42;;;;;;;16.75;8.13;;;;;;;2.40;85.67;94244.78;5009361;28;20380;-72
2021/12/26 01:59:12;;;;;;;19.52;8.65;;;;;;;2.28;85.53;94244.38;5009519;28;20196;-71
2021/12/26 02:01:39;;;;;;;16.92;9.13;;;;;;;2.43;85.80;94244.22;5009533;28;20201;-72
2021/12/26 02:04:06;;;;;;;20.27;9.25;;;;;;;2.68;85.59;94257.25;5008740;28;20197;-71
2021/12/26 02:06:34;;;;;;;16.15;8.32;;;;;;;2.67;84.74;94249.53;5009581;28;20275;-71
2021/12/26 02:09:01;;;;;;;17.40;8.38;;;;;;;2.66;84.70;94243.38;5009933;28;20408;-70
2021/12/26 02:11:28;;;;;;;20.52;8.93;;;;;;;2.72;84.56;94231.53;5008922;28;20670;-71
2021/12/26 02:13:55;;;;;;;13.55;8.15;;;;;;;2.69;84.51;94232.13;5007764;28;20466;-71
2021/12/26 02:16:25;;;;;;;16.20;8.10;;;;;;;2.76;84.18;94221.84;5009445;28;20675;-71
2021/12/26 02:18:52;;;;;;;15.80;8.35;;;;;;;2.75;84.11;94214.09;5009370;28;20201;-71
2021/12/26 02:21:33;;;;;;;14.82;6.93;;;;;;;2.85;83.94;94232.72;5008824;28;20208;-71
2021/12/26 02:24:12;;;;;;;17.80;7.60;;;;;;;2.93;84.27;94229.38;5008903;28;20564;-71
2021/12/26 02:29:24;;;;;;;14.85;7.68;;;;;;;2.82;83.69;94226.06;5009645;28;20195;-72
2021/12/26 02:31:51;;;;;;;26.42;11.90;;;;;;;2.73;84.01;94233.09;5009336;28;20730;-71
2021/12/26 02:34:18;;;;;;;21.83;10.18;;;;;;;2.68;84.04;94238.53;5009308;28;20204;-72
2021/12/26 02:36:47;;;;;;;16.35;8.07;;;;;;;2.61;84.24;94238.09;5008896;28;20236;-72
2021/12/26 02:39:15;;;;;;;18.02;8.65;;;;;;;2.80;84.77;94244.25;5009269;28;20229;-71
2021/12/26 02:41:42;;;;;;;13.90;6.70;;;;;;;3.07;83.60;94227.56;5008121;28;20349;-71
2021/12/26 02:44:09;;;;;;;27.45;9.93;;;;;;;3.37;82.14;94226.31;5008214;28;20228;-70
2021/12/26 02:46:36;;;;;;;18.75;8.95;;;;;;;3.43;82.14;94227.78;5008417;28;20200;-70
2021/12/26 02:49:03;;;;;;;15.77;8.05;;;;;;;3.60;81.16;94223.78;5009672;28;20215;-72
2021/12/26 02:51:30;;;;;;;16.80;7.68;;;;;;;3.69;80.68;94224.72;5008999;28;20205;-73
2021/12/26 02:53:59;;;;;;;12.43;6.70;;;;;;;3.70;80.50;94223.59;5008484;28;20716;-72
2021/12/26 02:56:26;;;;;;;17.40;7.55;;;;;;;3.65;80.18;94210.31;5008355;28;20255;-72
2021/12/26 02:58:53;;;;;;;11.93;6.07;;;;;;;3.82;80.36;94221.28;5008776;28;20216;-72
2021/12/26 03:01:22;;;;;;;13.38;6.30;;;;;;;3.96;79.47;94216.72;5008941;28;20556;-72
2021/12/26 03:03:49;;;;;;;12.48;6.18;;;;;;;3.99;79.08;94210.75;5008935;28;20588;-71
2021/12/26 03:06:24;;;;;;;12.50;6.22;;;;;;;4.06;79.50;94221.91;5008659;28;20743;-72
2021/12/26 03:08:54;;;;;;;12.55;6.07;;;;;;;3.97;79.10;94212.94;5008596;28;20340;-71
2021/12/26 03:11:22;;;;;;;12.32;6.38;;;;;;;3.99;79.76;94226.84;5008946;28;20206;-71
2021/12/26 03:13:49;;;;;;;13.48;6.85;;;;;;;4.07;80.06;94222.69;5008428;28;20208;-72
2021/12/26 03:16:16;;;;;;;8.27;4.88;;;;;;;4.17;78.91;94195.69;5008590;28;20241;-71
2021/12/26 03:18:44;;;;;;;8.90;4.88;;;;;;;4.16;78.77;94194.91;5009010;28;20201;-72
2021/12/26 03:21:11;;;;;;;12.98;6.65;;;;;;;4.12;79.21;94209.97;5009016;28;20194;-71
2021/12/26 03:23:38;;;;;;;12.02;6.20;;;;;;;4.15;78.82;94204.03;5008612;28;20229;-71
2021/12/26 03:26:07;;;;;;;20.13;8.13;;;;;;;4.05;78.83;94204.22;5012054;28;20205;-71
2021/12/26 03:28:36;;;;;;;21.05;8.48;;;;;;;4.11;78.95;94199.53;5012621;28;20213;-71
2021/12/26 03:31:03;;;;;;;16.58;6.90;;;;;;;4.08;78.81;94202.84;5012400;28;20197;-71
2021/12/26 03:33:31;;;;;;;20.08;10.73;;;;;;;4.13;80.01;94214.25;5012223;28;20201;-71
2021/12/26 03:35:58;;;;;;;10.23;5.78;;;;;;;4.28;78.29;94205.91;5012017;28;20683;-72
2021/12/26 03:38:25;;;;;;;14.50;6.60;;;;;;;4.35;77.96;94207.41;5012263;28;20233;-72
2021/12/26 03:40:54;;;;;;;15.57;7.55;;;;;;;4.31;78.04;94217.13;5011661;28;20229;-72
2021/12/26 03:43:21;;;;;;;17.52;7.85;;;;;;;4.21;78.02;94221.63;5012154;28;20221;-72
2021/12/26 03:45:52;;;;;;;17.00;6.28;;;;;;;4.33;77.73;94220.31;5011418;28;20201;-72
2021/12/26 03:48:21;;;;;;;13.77;5.35;;;;;;;4.42;77.48;94218.53;5011766;28;20212;-72
2021/12/26 03:50:48;;;;;;;12.90;6.28;;;;;;;4.47;78.10;94227.28;5012112;28;20193;-71
2021/12/26 03:53:17;;;;;;;10.65;5.97;;;;;;;4.47;77.95;94221.09;5011744;28;20201;-71
2021/12/26 03:55:44;;;;;;;12.73;6.68;;;;;;;4.47;78.23;94210.38;5011568;28;20233;-71
2021/12/26 03:58:12;;;;;;;16.13;8.05;;;;;;;4.39;77.47;94213.75;5011577;28;20837;-71
2021/12/26 04:00:40;;;;;;;20.42;11.13;;;;;;;4.16;78.38;94237.78;5011587;28;20197;-72
2021/12/26 04:03:08;;;;;;;18.65;7.40;;;;;;;4.21;79.02;94240.38;5011638;28;20602;-71
2021/12/26 04:05:35;;;;;;;18.40;8.02;;;;;;;4.23;78.65;94237.41;5011554;28;20212;-71
2021/12/26 04:08:03;;;;;;;11.13;6.22;;;;;;;4.05;79.08;94228.34;5011687;28;20240;-71
2021/12/26 04:10:30;;;;;;;13.50;6.80;;;;;;;4.23;79.00;94232.84;5011646;28;20208;-71
2021/12/26 04:12:58;;;;;;;13.73;6.97;;;;;;;4.26;78.02;94228.75;5011294;28;20750;-71
2021/12/26 04:15:27;;;;;;;14.93;6.32;;;;;;;4.23;78.84;94222.13;5011122;28;20653;-71
2021/12/26 04:17:57;;;;;;;13.73;7.15;;;;;;;4.15;78.63;94230.03;5011050;28;20201;-71
2021/12/26 04:20:26;;;;;;;11.98;6.82;;;;;;;3.86;79.62;94230.28;5011473;28;20207;-71
2021/12/26 04:22:54;;;;;;;12.05;6.30;;;;;;;3.75;79.78;94250.31;5011201;28;20715;-72
2021/12/26 04:25:22;;;;;;;13.43;6.15;;;;;;;3.66;79.85;94227.97;5011339;28;20255;-71
2021/12/26 04:27:50;;;;;;;12.65;5.95;;;;;;;3.83;80.26;94233.56;5011272;28;20339;-71
2021/12/26 04:30:18;;;;;;;14.52;6.60;;;;;;;3.81;80.24;94235.75;5011076;28;20251;-71
2021/12/26 04:32:45;;;;;;;10.73;5.90;;;;;;;4.02;80.57;94236.16;5010860;28;20213;-71
2021/12/26 04:35:12;;;;;;;15.50;6.07;;;;;;;4.14;79.62;94244.53;5010552;28;20201;-71
2021/12/26 04:37:41;;;;;;;12.60;5.90;;;;;;;4.17;79.15;94234.00;5010489;28;20205;-71
2021/12/26 04:40:11;;;;;;;12.20;5.85;;;;;;;4.29;79.09;94242.34;5011130;28;20704;-71
2021/12/26 04:42:39;;;;;;;13.60;7.20;;;;;;;4.16;78.84;94236.97;5010406;28;20229;-71
2021/12/26 04:45:08;;;;;;;11.48;6.65;;;;;;;4.22;79.27;94241.97;5010932;28;20735;-71
2021/12/26 04:47:36;;;;;;;16.13;7.10;;;;;;;4.20;79.02;94244.16;5010959;28;20738;-72
2021/12/26 04:50:03;;;;;;;11.18;6.20;;;;;;;4.20;79.18;94246.81;5010712;28;20595;-72
2021/12/26 04:52:30;;;;;;;12.88;7.55;;;;;;;4.26;78.39;94253.66;5011131;28;20201;-72
2021/12/26 04:55:01;;;;;;;12.57;6.70;;;;;;;4.19;79.02;94247.13;5010790;28;20467;-72
2021/12/26 04:57:28;;;;;;;13.45;6.43;;;;;;;4.17;78.34;94250.09;5010902;28;20256;-72
2021/12/26 04:59:54;;;;;;;11.50;6.07;;;;;;;4.09;78.72;94248.13;5010609;28;20205;-72
2021/12/26 05:02:21;;;;;;;12.23;6.35;;;;;;;4.02;79.30;94268.34;5010979;28;20204;-71
2021/12/26 05:04:48;;;;;;;12.02;6.32;;;;;;;4.02;78.90;94250.38;5010605;28;20320;-71
2021/12/26 05:07:15;;;;;;;9.45;6.22;;;;;;;3.87;80.28;94261.34;5010585;28;20211;-71
2021/12/26 05:09:45;;;;;;;11.80;6.25;;;;;;;3.75;80.39;94258.34;5010234;28;20288;-71
2021/12/26 05:12:13;;;;;;;13.02;6.75;;;;;;;3.94;80.63;94251.06;5009554;28;20193;-71
2021/12/26 05:14:40;;;;;;;11.07;6.13;;;;;;;4.02;79.18;94247.69;5010355;28;20205;-71
2021/12/26 05:17:07;;;;;;;15.70;6.93;;;;;;;4.06;79.76;94264.78;5010513;28;20232;-72
2021/12/26 05:19:34;;;;;;;11.68;7.03;;;;;;;3.97;79.82;94261.16;5009824;28;20197;-72
2021/12/26 05:22:01;;;;;;;16.35;8.13;;;;;;;3.87;80.91;94250.63;5009389;28;20189;-72
2021/12/26 05:24:28;;;;;;;14.27;7.30;;;;;;;3.87;80.54;94264.03;5009672;28;20544;-72
2021/12/26 05:26:55;;;;;;;13.07;7.05;;;;;;;3.97;80.49;94282.59;5009860;28;20208;-72
2021/12/26 05:29:23;;;;;;;12.02;6.95;;;;;;;3.91;80.15;94262.34;5010326;28;20209;-72
2021/12/26 05:31:50;;;;;;;10.48;5.65;;;;;;;3.82;81.72;94285.56;5009963;28;20204;-72
2021/12/26 05:34:17;;;;;;;15.45;7.13;;;;;;;3.73;81.51;94293.47;5009585;28;20205;-72
2021/12/26 05:36:44;;;;;;;16.77;8.88;;;;;;;3.77;81.29;94250.81;5009307;28;20679;-72
2021/12/26 05:39:11;;;;;;;15.27;6.93;;;;;;;3.93;81.34;94262.88;5009327;28;20601;-72
2021/12/26 05:41:39;;;;;;;12.32;6.88;;;;;;;3.80;81.87;94271.66;5009768;28;20233;-71
2021/12/26 05:44:06;;;;;;;13.65;7.57;;;;;;;4.00;81.81;94270.50;5009489;28;20846;-72
2021/12/26 05:46:34;;;;;;;15.68;8.55;;;;;;;4.05;82.46;94276.59;5009698;28;20209;-72
2021/12/26 05:49:01;;;;;;;20.50;8.32;;;;;;;4.25;83.00;94270.84;5009332;28;20205;-72
2021/12/26 05:51:28;;;;;;;14.52;7.38;;;;;;;4.40;83.18;94277.00;5009674;28;20620;-72
2021/12/26 05:53:55;;;;;;;12.73;7.03;;;;;;;4.41;82.10;94259.81;5009823;28;20310;-72
2021/12/26 05:56:22;;;;;;;16.85;7.82;;;;;;;4.33;82.89;94255.16;5009431;28;20221;-72
2021/12/26 05:58:49;;;;;;;12.25;5.18;;;;;;;4.19;82.93;94253.28;5009729;28;20197;-72
2021/12/26 06:01:16;;;;;;;10.52;6.20;;;;;;;4.17;83.54;94244.72;5009802;28;20201;-72
2021/12/26 06:03:45;;;;;;;22.02;9.00;;;;;;;4.19;84.51;94247.91;5009417;28;20224;-72
2021/12/26 06:06:11;;;;;;;15.75;7.55;;;;;;;4.15;84.46;94246.91;5009767;28;20572;-72
2021/12/26 06:08:39;;;;;;;12.90;7.20;;;;;;;4.07;84.91;94236.88;5009812;28;20576;-72
2021/12/26 06:11:05;;;;;;;20.70;6.63;;;;;;;4.18;84.23;94227.56;5009699;28;20205;-72
2021/12/26 06:13:33;;;;;;;13.35;7.32;;;;;;;4.10;84.45;94211.38;5009587;28;20200;-72
2021/12/26 06:16:00;;;;;;;14.35;6.63;;;;;;;4.17;83.41;94204.53;5009684;28;20232;-72
2021/12/26 06:18:27;;;;;;;19.27;7.60;;;;;;;4.26;83.86;94221.50;5009594;28;20208;-72
2021/12/26 06:20:56;;;;;;;15.90;7.45;;;;;;;4.17;83.73;94201.84;5008761;28;20201;-72
2021/12/26 06:23:23;;;;;;;22.00;7.97;;;;;;;4.17;83.45;94201.84;5009022;28;20298;-72
2021/12/26 06:25:50;;;;;;;21.30;8.63;;;;;;;4.20;82.85;94195.09;5009272;28;20636;-72
2021/12/26 06:28:17;;;;;;;17.25;9.15;;;;;;;4.26;82.18;94208.09;5009488;28;20212;-72
2021/12/26 06:30:44;;;;;;;17.95;8.68;;;;;;;4.29;83.37;94212.88;5009127;28;20728;-71
2021/12/26 06:33:11;;;;;;;9.93;5.43;;;;;;;4.32;82.30;94211.47;5009213;28;20751;-71
2021/12/26 06:35:38;;;;;;;17.42;8.45;;;;;;;4.34;82.36;94219.22;5009035;28;20664;-72
2021/12/26 06:38:06;;;;;;;16.38;8.52;;;;;;;4.44;82.99;94216.34;5009363;28;20205;-72
2021/12/26 06:40:33;;;;;;;10.57;5.45;;;;;;;4.47;82.33;94199.66;5008969;28;20212;-72
2021/12/26 06:43:00;;;;;;;16.33;7.78;;;;;;;4.22;82.26;94183.00;5009655;28;20205;-73
2021/12/26 06:45:27;;;;;;;12.45;7.10;;;;;;;4.37;82.79;94207.91;5008818;28;20342;-72
2021/12/26 06:47:56;;;;;;;12.73;7.18;;;;;;;4.38;82.50;94206.78;5009672;28;20212;-73
2021/12/26 06:50:23;;;;;;;7.20;4.68;;;;;;;4.25;82.35;94214.53;5008798;28;20742;-73
2021/12/26 06:52:50;;;;;;;12.82;4.80;;;;;;;4.13;82.52;94222.28;5008874;28;20274;-72
2021/12/26 06:55:18;;;;;;;16.33;8.30;;;;;;;4.25;83.28;94246.72;5008648;28;20232;-72
2021/12/26 06:57:45;;;;;;;10.65;5.57;;;;;;;4.16;82.06;94224.38;5009255;28;20205;-72
2021/12/26 07:00:16;;;;;;;15.40;7.63;;;;;;;4.19;83.32;94257.84;5011989;28;20204;-72
2021/12/26 07:02:43;;;;;;;12.13;6.15;;;;;;;4.19;83.96;94269.34;5013127;28;20258;-72
2021/12/26 07:05:11;;;;;;;16.75;8.98;;;;;;;4.08;85.40;94257.25;5012558;28;20268;-73
2021/12/26 07:07:38;;;;;;;20.40;9.85;;;;;;;4.14;84.96;94261.41;5012796;28;20201;-73
2021/12/26 07:10:06;;;;;;;15.35;8.35;;;;;;;4.22;85.59;94263.41;5012536;28;20224;-73
2021/12/26 07:12:34;;;;;;;15.52;7.93;;;;;;;4.33;85.49;94268.56;5012753;28;20292;-73
2021/12/26 07:15:01;;;;;;;17.50;9.07;;;;;;;4.33;85.39;94260.53;5012285;28;20703;-73
2021/12/26 07:17:28;;;;;;;17.20;8.93;;;;;;;4.46;85.96;94273.16;5012910;28;20201;-73
2021/12/26 07:19:55;;;;;;;16.75;8.63;;;;;;;4.51;85.42;94270.38;5012766;28;20205;-73
2021/12/26 07:22:22;;;;;;;15.32;9.07;;;;;;;4.65;85.20;94276.50;5011068;28;20197;-73
2021/12/26 07:24:49;;;;;;;20.95;9.90;;;;;;;4.62;85.04;94277.13;5010885;28;20259;-74
2021/12/26 07:27:17;;;;;;;15.90;8.43;;;;;;;4.62;85.22;94266.41;5011686;28;20223;-73
2021/12/26 07:29:45;;;;;;;19.48;10.90;;;;;;;4.69;85.85;94277.50;5012025;28;20197;-73
2021/12/26 07:32:12;;;;;;;15.52;9.32;;;;;;;4.78;85.14;94275.72;5012477;28;20224;-73
2021/12/26 07:34:40;;;;;;;21.70;13.52;;;;;;;4.65;85.31;94255.03;5011684;28;20247;-73
2021/12/26 07:37:08;;;;;;;25.75;15.40;;;;;;;4.72;85.30;94260.81;5011529;28;20232;-73
2021/12/26 07:39:36;;;;;;;20.10;10.70;;;;;;;4.79;85.31;94271.94;5011573;28;20221;-74
2021/12/26 07:42:04;;;;;;;23.90;10.82;;;;;;;4.87;84.89;94257.81;5011956;28;20783;-74
2021/12/26 07:44:31;;;;;;;20.25;10.07;;;;;;;4.91;85.43;94269.56;5011694;28;20264;-73
2021/12/26 07:46:59;;;;;;;22.80;11.10;;;;;;;4.86;85.22;94266.97;5012095;28;20197;-74
2021/12/26 07:49:27;;;;;;;49.38;19.15;;;;;;;4.98;85.65;94275.28;5011806;28;20197;-74
2021/12/26 07:51:55;;;;;;;25.67;13.15;;;;;;;4.90;86.27;94273.31;5010876;28;20588;-73
2021/12/26 07:54:23;;;;;;;19.65;8.45;;;;;;;4.93;85.80;94259.28;5011301;28;20229;-74
2021/12/26 07:56:53;;;;;;;26.00;15.23;;;;;;;5.05;85.82;94258.00;5011307;28;20690;-75
2021/12/26 07:59:20;;;;;;;19.85;11.10;;;;;;;5.11;86.75;94256.78;5011978;28;20284;-75
2021/12/26 08:01:47;;;;;;;10.95;6.90;;;;;;;5.31;85.75;94250.97;5011259;28;20216;-74
2021/12/26 08:04:16;;;;;;;19.70;10.32;;;;;;;5.45;86.22;94257.09;5010844;28;20568;-74
2021/12/26 08:06:43;;;;;;;20.58;9.32;;;;;;;5.51;84.79;94245.09;5010794;28;20702;-74
2021/12/26 08:09:09;;;;;;;23.98;13.73;;;;;;;5.60;84.40;94254.00;5011736;28;20230;-74
2021/12/26 08:11:38;;;;;;;18.45;8.20;;;;;;;5.58;84.21;94240.13;5010423;28;20201;-74
2021/12/26 08:14:05;;;;;;;11.25;7.00;;;;;;;5.72;83.79;94240.84;5011146;28;20582;-74
2021/12/26 08:16:32;;;;;;;12.15;7.43;;;;;;;5.88;83.91;94232.38;5010721;28;20292;-74
2021/12/26 08:18:59;;;;;;;21.75;10.88;;;;;;;5.90;82.43;94206.81;5011035;28;20565;-74
2021/12/26 08:21:27;;;;;;;18.27;8.13;;;;;;;5.87;83.24;94220.88;5011278;28;20660;-75
2021/12/26 08:23:54;;;;;;;10.90;6.07;;;;;;;6.05;81.94;94211.00;5010532;28;20225;-74
2021/12/26 08:26:21;;;;;;;15.57;9.27;;;;;;;6.29;82.12;94230.25;5011044;28;20279;-75
2021/12/26 08:28:48;;;;;;;13.32;8.68;;;;;;;6.30;80.07;94206.84;5011101;28;20260;-74
2021/12/26 08:31:16;;;;;;;13.98;6.80;;;;;;;6.53;80.84;94237.16;5011317;28;20324;-75
2021/12/26 08:33:43;;;;;;;12.95;6.45;;;;;;;6.72;80.89;94233.09;5011119;28;20753;-74
2021/12/26 08:36:10;;;;;;;13.57;6.63;;;;;;;6.65;79.00;94219.31;5011115;28;20197;-74
2021/12/26 08:38:39;;;;;;;12.38;6.40;;;;;;;6.71;79.76;94230.72;5011346;28;20224;-75
2021/12/26 08:41:06;;;;;;;20.30;9.68;;;;;;;6.65;79.03;94224.69;5010774;28;20237;-74
2021/12/26 08:43:33;;;;;;;15.43;7.28;;;;;;;6.86;79.98;94251.81;5011043;28;20208;-75
2021/12/26 08:46:00;;;;;;;8.10;5.07;;;;;;;7.01;77.80;94232.53;5011125;28;20245;-75
2021/12/26 08:48:28;;;;;;;12.88;6.45;;;;;;;7.24;78.53;94240.50;5010918;28;20628;-75
2021/12/26 08:50:55;;;;;;;15.40;5.82;;;;;;;7.41;77.78;94245.88;5011008;28;20228;-74
2021/12/26 08:53:23;;;;;;;13.20;5.88;;;;;;;7.24;75.93;94229.72;5011178;28;20205;-74
2021/12/26 08:55:52;;;;;;;12.90;6.07;;;;;;;7.30;77.77;94249.97;5010449;28;20224;-75
2021/12/26 08:58:20;;;;;;;7.65;4.18;;;;;;;7.41;76.61;94225.09;5010487;28;20208;-73
2021/12/26 09:00:47;;;;;;;11.32;6.30;;;;;;;7.43;76.04;94232.88;5010921;28;20708;-74
2021/12/26 09:03:14;;;;;;;10.18;6.05;;;;;;;7.67;76.69;94243.94;5010931;28;20199;-76
2021/12/26 09:05:42;;;;;;;9.55;4.43;;;;;;;7.88;75.55;94227.13;5010794;28;20225;-75
2021/12/26 09:08:10;;;;;;;8.68;4.82;;;;;;;7.94;74.82;94220.44;5010869;28;20228;-74
2021/12/26 09:10:37;;;;;;;13.45;7.82;;;;;;;7.93;74.33;94213.47;5010704;28;20514;-74
2021/12/26 09:13:06;;;;;;;13.75;7.82;;;;;;;7.63;76.38;94217.97;5010154;28;20774;-74
2021/12/26 09:15:34;;;;;;;11.85;7.03;;;;;;;7.83;74.54;94210.00;5010224;28;20193;-74
2021/12/26 09:18:01;;;;;;;12.77;7.82;;;;;;;7.91;73.34;94196.84;5010165;28;20209;-74
2021/12/26 09:20:29;;;;;;;8.90;6.32;;;;;;;7.99;73.64;94196.00;5010330;28;20209;-74
2021/12/26 09:22:56;;;;;;;10.10;7.10;;;;;;;8.18;73.95;94207.22;5009600;28;20249;-73
2021/12/26 09:25:24;;;;;;;12.15;7.43;;;;;;;8.21;73.37;94187.69;5010116;28;20228;-74
2021/12/26 09:27:51;;;;;;;15.82;8.90;;;;;;;8.18;72.71;94191.03;5009426;28;20207;-73
2021/12/26 09:30:20;;;;;;;14.25;8.70;;;;;;;8.48;73.37;94211.56;5009869;28;20201;-73
2021/12/26 09:32:47;;;;;;;22.58;12.23;;;;;;;8.47;72.75;94201.88;5010198;28;20359;-74
2021/12/26 09:35:14;;;;;;;23.27;11.50;;;;;;;8.49;72.63;94205.06;5009793;28;20209;-73
2021/12/26 09:37:43;;;;;;;17.42;9.13;;;;;;;8.39;71.54;94208.13;5009841;28;20217;-73
2021/12/26 09:40:12;;;;;;;16.85;9.52;;;;;;;8.42;72.27;94218.28;5009779;28;20201;-73
2021/12/26 09:42:39;;;;;;;14.98;9.00;;;;;;;8.56;72.74;94215.38;5009605;28;20236;-73
2021/12/26 09:45:08;;;;;;;15.25;9.20;;;;;;;8.86;71.96;94216.16;5009938;28;20232;-73
2021/12/26 09:47:37;;;;;;;15.13;9.55;;;;;;;9.02;72.26;94221.81;5009960;28;20200;-73
2021/12/26 09:50:05;;;;;;;17.20;10.63;;;;;;;9.05;70.65;94210.31;5009829;28;20225;-72
2021/12/26 09:52:32;;;;;;;18.45;10.80;;;;;;;9.07;71.76;94208.88;5009663;28;20255;-73
2021/12/26 09:55:00;;;;;;;18.45;11.30;;;;;;;9.34;69.83;94201.38;5009713;28;20224;-73
2021/12/26 09:57:29;;;;;;;19.85;11.35;;;;;;;9.54;69.50;94204.09;5009194;28;20193;-75
2021/12/26 09:59:56;;;;;;;16.40;9.40;;;;;;;9.27;68.54;94210.81;5009384;28;20570;-74
2021/12/26 10:02:23;;;;;;;10.02;5.65;;;;;;;9.37;69.34;94211.53;5009555;28;20529;-72
2021/12/26 10:04:52;;;;;;;13.80;7.50;;;;;;;9.17;68.92;94224.69;5009429;28;20228;-72
2021/12/26 10:07:21;;;;;;;9.88;5.97;;;;;;;9.06;68.48;94218.09;5009715;28;20566;-73
2021/12/26 10:09:52;;;;;;;9.70;6.07;;;;;;;9.25;67.96;94210.34;5009814;28;20209;-75
2021/12/26 10:12:21;;;;;;;12.93;6.30;;;;;;;9.18;67.93;94218.16;5009562;28;20196;-73
2021/12/26 10:14:51;;;;;;;10.45;5.90;;;;;;;9.00;66.89;94214.03;5009402;28;20205;-73
2021/12/26 10:17:25;;;;;;;9.98;6.03;;;;;;;8.81;69.76;94216.34;5009574;28;20209;-72
2021/12/26 10:20:01;;;;;;;8.00;5.63;;;;;;;9.01;69.52;94221.00;5008904;28;20671;-73
2021/12/26 10:22:29;;;;;;;10.95;5.75;;;;;;;8.86;69.63;94211.56;5009092;28;20674;-74
2021/12/26 10:24:56;;;;;;;10.45;6.07;;;;;;;8.95;69.69;94219.59;5009837;28;20700;-73
2021/12/26 10:27:26;;;;;;;11.40;5.40;;;;;;;8.92;69.14;94228.34;5010029;28;20200;-73
2021/12/26 10:29:55;;;;;;;8.65;6.13;;;;;;;9.14;68.83;94230.78;5009086;28;20699;-73
2021/12/26 10:32:24;;;;;;;9.60;6.03;;;;;;;8.80;68.12;94230.97;5008580;28;20197;-72
2021/12/26 10:34:54;;;;;;;9.48;5.40;;;;;;;8.99;67.56;94234.03;5010845;28;20214;-74
2021/12/26 10:37:23;;;;;;;11.07;5.40;;;;;;;9.05;67.17;94227.31;5013138;28;20209;-73
2021/12/26 10:39:52;;;;;;;10.00;5.65;;;;;;;8.91;67.17;94221.38;5013020;28;20233;-73
2021/12/26 10:42:22;;;;;;;12.85;5.28;;;;;;;8.58;68.10;94198.84;5012348;28;20276;-72
2021/12/26 10:44:51;;;;;;;11.70;5.75;;;;;;;8.55;67.94;94211.06;5012278;28;20233;-72
2021/12/26 10:47:22;;;;;;;8.70;5.88;;;;;;;8.85;68.58;94206.47;5012627;28;20209;-73
2021/12/26 10:49:55;;;;;;;12.02;6.43;;;;;;;9.00;68.70;94200.50;5013025;28;20216;-72
2021/12/26 10:52:26;;;;;;;12.70;5.70;;;;;;;9.25;67.31;94218.44;5012989;28;20220;-72
2021/12/26 10:54:59;;;;;;;11.18;6.10;;;;;;;9.61;66.01;94200.81;5012781;28;20232;-72
2021/12/26 10:57:29;;;;;;;10.40;5.50;;;;;;;9.75;66.05;94193.22;5012682;28;20193;-72
2021/12/26 11:00:05;;;;;;;12.02;5.97;;;;;;;10.10;64.69;94206.44;5012320;28;20251;-73
2021/12/26 11:02:34;;;;;;;9.10;5.80;;;;;;;9.79;63.46;94199.56;5012156;28;20204;-72
2021/12/26 11:05:06;;;;;;;10.48;5.22;;;;;;;9.57;65.02;94194.50;5012436;28;20291;-71
2021/12/26 11:07:49;;;;;;;11.43;5.70;;;;;;;9.63;64.04;94206.69;5012775;28;20185;-72
2021/12/26 11:10:22;;;;;;;9.13;5.53;;;;;;;9.89;64.24;94217.28;5012464;28;20200;-72
2021/12/26 11:12:51;;;;;;;10.43;5.90;;;;;;;10.21;64.30;94213.00;5012584;28;20267;-72
2021/12/26 11:15:19;;;;;;;9.63;5.60;;;;;;;10.60;63.42;94212.41;5012822;28;20208;-72
2021/12/26 11:17:49;;;;;;;11.02;6.15;;;;;;;10.93;61.68;94206.09;5012369;28;20216;-72
2021/12/26 11:20:32;;;;;;;10.95;5.38;;;;;;;11.26;60.32;94216.75;5012991;28;20197;-73
2021/12/26 11:23:00;;;;;;;8.38;5.30;;;;;;;10.85;62.67;94223.22;4993017;28;20230;-73
2021/12/26 11:25:27;;;;;;;9.90;5.45;;;;;;;10.71;60.97;94187.56;4992758;28;20230;-73
2021/12/26 11:27:55;;;;;;;11.50;5.75;;;;;;;10.99;60.70;94210.94;4992945;28;20206;-72
2021/12/26 11:30:22;;;;;;;9.65;5.20;;;;;;;11.42;60.71;94211.44;4992626;28;20209;-72
2021/12/26 11:32:49;;;;;;;7.63;4.88;;;;;;;11.60;59.65;94212.75;4992394;28;20532;-72
2021/12/26 11:35:16;;;;;;;8.10;5.18;;;;;;;11.48;60.08;94212.78;4992730;28;20205;-72
2021/12/26 11:37:45;;;;;;;12.75;5.63;;;;;;;11.82;58.34;94198.66;4992654;28;20304;-72
2021/12/26 11:40:16;;;;;;;14.35;5.95;;;;;;;11.55;58.73;94205.63;4992377;28;20627;-71